sensor_id;sensor_type;location;lat;lon;timestamp;temperature;humidity
22456;DHT22;11395;53.204;6.502;2023-06-14T00:02:14;26.10;58.30
22456;DHT22;11395;53.204;6.502;2023-06-14T00:04:41;26.00;58.30
22456;DHT22;11395;53.204;6.502;2023-06-14T00:07:09;26.00;58.30
22456;DHT22;11395;53.204;6.502;2023-06-14T00:09:35;26.00;58.40
22456;DHT22;11395;53.204;6.502;2023-06-14T00:12:01;26.00;58.50
22456;DHT22;11395;53.204;6.502;2023-06-14T00:14:27;26.00;58.50
22456;DHT22;11395;53.204;6.502;2023-06-14T00:16:54;26.00;58.40
22456;DHT22;11395;53.204;6.502;2023-06-14T00:19:25;26.00;58.60
22456;DHT22;11395;53.204;6.502;2023-06-14T00:21:51;26.00;58.70
22456;DHT22;11395;53.204;6.502;2023-06-14T00:24:19;25.90;58.60
22456;DHT22;11395;53.204;6.502;2023-06-14T00:26:45;26.00;58.70
22456;DHT22;11395;53.204;6.502;2023-06-14T00:29:11;25.90;58.70
22456;DHT22;11395;53.204;6.502;2023-06-14T00:31:37;25.90;58.70
22456;DHT22;11395;53.204;6.502;2023-06-14T00:34:03;26.00;58.70
22456;DHT22;11395;53.204;6.502;2023-06-14T00:36:30;25.90;58.70
22456;DHT22;11395;53.204;6.502;2023-06-14T00:38:56;25.90;58.80
22456;DHT22;11395;53.204;6.502;2023-06-14T00:41:22;25.90;58.80
22456;DHT22;11395;53.204;6.502;2023-06-14T00:43:48;25.90;59.00
22456;DHT22;11395;53.204;6.502;2023-06-14T00:46:14;25.90;58.80
22456;DHT22;11395;53.204;6.502;2023-06-14T00:48:41;25.90;58.90
22456;DHT22;11395;53.204;6.502;2023-06-14T00:51:07;25.90;59.00
22456;DHT22;11395;53.204;6.502;2023-06-14T00:53:34;25.90;58.90
22456;DHT22;11395;53.204;6.502;2023-06-14T00:56:02;25.80;59.00
22456;DHT22;11395;53.204;6.502;2023-06-14T00:58:28;25.90;59.10
22456;DHT22;11395;53.204;6.502;2023-06-14T01:00:54;25.80;59.00
22456;DHT22;11395;53.204;6.502;2023-06-14T01:03:22;25.80;59.20
22456;DHT22;11395;53.204;6.502;2023-06-14T01:05:55;25.80;59.30
22456;DHT22;11395;53.204;6.502;2023-06-14T01:08:47;25.80;59.30
22456;DHT22;11395;53.204;6.502;2023-06-14T01:11:28;25.80;59.10
22456;DHT22;11395;53.204;6.502;2023-06-14T01:14:00;25.70;59.30
22456;DHT22;11395;53.204;6.502;2023-06-14T01:16:28;25.70;59.30
22456;DHT22;11395;53.204;6.502;2023-06-14T01:18:55;25.70;59.30
22456;DHT22;11395;53.204;6.502;2023-06-14T01:21:23;25.70;59.30
22456;DHT22;11395;53.204;6.502;2023-06-14T01:23:51;25.70;59.30
22456;DHT22;11395;53.204;6.502;2023-06-14T01:26:21;25.70;59.30
22456;DHT22;11395;53.204;6.502;2023-06-14T01:28:48;25.70;59.40
22456;DHT22;11395;53.204;6.502;2023-06-14T01:31:20;25.70;59.50
22456;DHT22;11395;53.204;6.502;2023-06-14T01:33:51;25.70;59.60
22456;DHT22;11395;53.204;6.502;2023-06-14T01:36:19;25.70;59.60
22456;DHT22;11395;53.204;6.502;2023-06-14T01:38:46;25.70;59.60
22456;DHT22;11395;53.204;6.502;2023-06-14T01:41:14;25.60;59.60
22456;DHT22;11395;53.204;6.502;2023-06-14T01:43:41;25.60;59.60
22456;DHT22;11395;53.204;6.502;2023-06-14T01:46:08;25.60;59.60
22456;DHT22;11395;53.204;6.502;2023-06-14T01:48:35;25.60;59.60
22456;DHT22;11395;53.204;6.502;2023-06-14T01:51:03;25.60;59.60
22456;DHT22;11395;53.204;6.502;2023-06-14T01:53:29;25.60;59.80
22456;DHT22;11395;53.204;6.502;2023-06-14T01:55:55;25.60;59.70
22456;DHT22;11395;53.204;6.502;2023-06-14T01:58:22;25.60;59.80
22456;DHT22;11395;53.204;6.502;2023-06-14T02:00:49;25.60;59.70
22456;DHT22;11395;53.204;6.502;2023-06-14T02:03:17;25.60;59.80
22456;DHT22;11395;53.204;6.502;2023-06-14T02:05:45;25.50;59.70
22456;DHT22;11395;53.204;6.502;2023-06-14T02:08:11;25.50;59.80
22456;DHT22;11395;53.204;6.502;2023-06-14T02:10:37;25.50;59.80
22456;DHT22;11395;53.204;6.502;2023-06-14T02:13:04;25.50;59.90
22456;DHT22;11395;53.204;6.502;2023-06-14T02:15:30;25.50;59.90
22456;DHT22;11395;53.204;6.502;2023-06-14T02:18:01;25.50;59.90
22456;DHT22;11395;53.204;6.502;2023-06-14T02:20:28;25.50;60.00
22456;DHT22;11395;53.204;6.502;2023-06-14T02:22:54;25.50;60.70
22456;DHT22;11395;53.204;6.502;2023-06-14T02:25:21;25.40;59.90
22456;DHT22;11395;53.204;6.502;2023-06-14T02:27:47;25.40;60.00
22456;DHT22;11395;53.204;6.502;2023-06-14T02:30:13;25.40;60.00
22456;DHT22;11395;53.204;6.502;2023-06-14T02:32:39;25.40;60.10
22456;DHT22;11395;53.204;6.502;2023-06-14T02:35:07;25.40;60.10
22456;DHT22;11395;53.204;6.502;2023-06-14T02:37:35;25.40;60.20
22456;DHT22;11395;53.204;6.502;2023-06-14T02:40:01;25.30;60.10
22456;DHT22;11395;53.204;6.502;2023-06-14T02:42:27;25.30;60.20
22456;DHT22;11395;53.204;6.502;2023-06-14T02:44:53;25.30;60.20
22456;DHT22;11395;53.204;6.502;2023-06-14T02:47:20;25.30;60.30
22456;DHT22;11395;53.204;6.502;2023-06-14T02:49:47;25.30;60.40
22456;DHT22;11395;53.204;6.502;2023-06-14T02:52:15;25.30;60.40
22456;DHT22;11395;53.204;6.502;2023-06-14T02:54:41;25.30;60.60
22456;DHT22;11395;53.204;6.502;2023-06-14T02:57:08;25.30;60.50
22456;DHT22;11395;53.204;6.502;2023-06-14T02:59:36;25.30;60.60
22456;DHT22;11395;53.204;6.502;2023-06-14T03:02:04;25.30;60.60
22456;DHT22;11395;53.204;6.502;2023-06-14T03:04:32;25.30;60.50
22456;DHT22;11395;53.204;6.502;2023-06-14T03:07:03;25.30;60.50
22456;DHT22;11395;53.204;6.502;2023-06-14T03:09:39;25.20;60.90
22456;DHT22;11395;53.204;6.502;2023-06-14T03:12:06;25.20;60.50
22456;DHT22;11395;53.204;6.502;2023-06-14T03:14:36;25.20;60.50
22456;DHT22;11395;53.204;6.502;2023-06-14T03:17:03;25.20;60.60
22456;DHT22;11395;53.204;6.502;2023-06-14T03:19:31;25.20;60.60
22456;DHT22;11395;53.204;6.502;2023-06-14T03:21:57;25.20;60.50
22456;DHT22;11395;53.204;6.502;2023-06-14T03:24:25;25.20;60.70
22456;DHT22;11395;53.204;6.502;2023-06-14T03:26:57;25.20;61.50
22456;DHT22;11395;53.204;6.502;2023-06-14T03:29:24;25.20;60.70
22456;DHT22;11395;53.204;6.502;2023-06-14T03:34:26;25.10;60.70
22456;DHT22;11395;53.204;6.502;2023-06-14T03:36:52;25.10;60.70
22456;DHT22;11395;53.204;6.502;2023-06-14T03:39:19;25.10;60.60
22456;DHT22;11395;53.204;6.502;2023-06-14T03:41:46;25.10;60.70
22456;DHT22;11395;53.204;6.502;2023-06-14T03:44:15;25.10;60.50
22456;DHT22;11395;53.204;6.502;2023-06-14T03:46:41;25.10;60.60
22456;DHT22;11395;53.204;6.502;2023-06-14T03:49:08;25.10;60.50
22456;DHT22;11395;53.204;6.502;2023-06-14T03:51:34;25.10;60.70
22456;DHT22;11395;53.204;6.502;2023-06-14T03:54:01;25.10;60.50
22456;DHT22;11395;53.204;6.502;2023-06-14T03:56:28;25.10;60.60
22456;DHT22;11395;53.204;6.502;2023-06-14T03:58:54;25.10;60.60
22456;DHT22;11395;53.204;6.502;2023-06-14T04:01:23;25.10;60.80
22456;DHT22;11395;53.204;6.502;2023-06-14T04:03:57;25.10;60.90
22456;DHT22;11395;53.204;6.502;2023-06-14T04:06:25;25.10;60.80
22456;DHT22;11395;53.204;6.502;2023-06-14T04:08:58;25.10;60.60
22456;DHT22;11395;53.204;6.502;2023-06-14T04:11:28;25.10;60.80
22456;DHT22;11395;53.204;6.502;2023-06-14T04:13:54;25.10;60.90
22456;DHT22;11395;53.204;6.502;2023-06-14T04:16:22;25.10;61.00
22456;DHT22;11395;53.204;6.502;2023-06-14T04:18:49;25.10;60.70
22456;DHT22;11395;53.204;6.502;2023-06-14T04:21:18;25.10;60.80
22456;DHT22;11395;53.204;6.502;2023-06-14T04:23:45;25.10;60.70
22456;DHT22;11395;53.204;6.502;2023-06-14T04:26:14;25.10;60.70
22456;DHT22;11395;53.204;6.502;2023-06-14T04:28:42;25.10;60.70
22456;DHT22;11395;53.204;6.502;2023-06-14T04:31:11;25.10;60.70
22456;DHT22;11395;53.204;6.502;2023-06-14T04:33:38;25.10;60.80
22456;DHT22;11395;53.204;6.502;2023-06-14T04:36:15;25.00;60.60
22456;DHT22;11395;53.204;6.502;2023-06-14T04:38:44;25.00;60.50
22456;DHT22;11395;53.204;6.502;2023-06-14T04:41:12;25.00;60.80
22456;DHT22;11395;53.204;6.502;2023-06-14T04:43:39;25.00;60.60
22456;DHT22;11395;53.204;6.502;2023-06-14T04:46:06;25.00;60.80
22456;DHT22;11395;53.204;6.502;2023-06-14T04:48:39;25.00;60.80
22456;DHT22;11395;53.204;6.502;2023-06-14T04:51:10;25.00;60.70
22456;DHT22;11395;53.204;6.502;2023-06-14T04:53:36;25.00;60.70
22456;DHT22;11395;53.204;6.502;2023-06-14T04:56:04;25.00;60.90
22456;DHT22;11395;53.204;6.502;2023-06-14T04:58:31;25.00;60.90
22456;DHT22;11395;53.204;6.502;2023-06-14T05:00:59;25.00;60.60
22456;DHT22;11395;53.204;6.502;2023-06-14T05:03:25;25.00;61.00
22456;DHT22;11395;53.204;6.502;2023-06-14T05:05:52;25.00;60.90
22456;DHT22;11395;53.204;6.502;2023-06-14T05:08:20;25.00;60.70
22456;DHT22;11395;53.204;6.502;2023-06-14T05:10:49;25.00;60.80
22456;DHT22;11395;53.204;6.502;2023-06-14T05:13:16;25.00;60.80
22456;DHT22;11395;53.204;6.502;2023-06-14T05:15:44;25.00;61.00
22456;DHT22;11395;53.204;6.502;2023-06-14T05:18:11;25.00;60.90
22456;DHT22;11395;53.204;6.502;2023-06-14T05:20:37;25.00;61.00
22456;DHT22;11395;53.204;6.502;2023-06-14T05:23:03;25.00;61.00
22456;DHT22;11395;53.204;6.502;2023-06-14T05:25:29;25.00;60.90
22456;DHT22;11395;53.204;6.502;2023-06-14T05:27:55;25.00;60.90
22456;DHT22;11395;53.204;6.502;2023-06-14T05:30:21;25.00;61.00
22456;DHT22;11395;53.204;6.502;2023-06-14T05:32:47;25.00;60.90
22456;DHT22;11395;53.204;6.502;2023-06-14T05:35:14;25.00;61.80
22456;DHT22;11395;53.204;6.502;2023-06-14T05:37:40;25.00;60.80
22456;DHT22;11395;53.204;6.502;2023-06-14T05:40:08;25.00;60.90
22456;DHT22;11395;53.204;6.502;2023-06-14T05:42:35;25.00;60.50
22456;DHT22;11395;53.204;6.502;2023-06-14T05:45:01;25.00;59.40
22456;DHT22;11395;53.204;6.502;2023-06-14T05:47:27;25.00;59.30
22456;DHT22;11395;53.204;6.502;2023-06-14T05:49:53;25.00;59.00
22456;DHT22;11395;53.204;6.502;2023-06-14T05:52:21;24.90;58.60
22456;DHT22;11395;53.204;6.502;2023-06-14T05:54:47;24.90;58.60
22456;DHT22;11395;53.204;6.502;2023-06-14T05:57:13;24.90;57.90
22456;DHT22;11395;53.204;6.502;2023-06-14T05:59:39;24.90;58.00
22456;DHT22;11395;53.204;6.502;2023-06-14T06:02:06;24.90;57.70
22456;DHT22;11395;53.204;6.502;2023-06-14T06:04:32;24.90;56.40
22456;DHT22;11395;53.204;6.502;2023-06-14T06:06:58;25.00;56.40
22456;DHT22;11395;53.204;6.502;2023-06-14T06:09:24;25.00;56.80
22456;DHT22;11395;53.204;6.502;2023-06-14T06:11:50;25.00;56.40
22456;DHT22;11395;53.204;6.502;2023-06-14T06:14:16;25.00;56.40
22456;DHT22;11395;53.204;6.502;2023-06-14T06:16:42;25.10;56.10
22456;DHT22;11395;53.204;6.502;2023-06-14T06:19:08;25.10;56.20
22456;DHT22;11395;53.204;6.502;2023-06-14T06:21:34;25.20;55.90
22456;DHT22;11395;53.204;6.502;2023-06-14T06:24:01;25.30;55.70
22456;DHT22;11395;53.204;6.502;2023-06-14T06:26:29;25.30;55.70
22456;DHT22;11395;53.204;6.502;2023-06-14T06:28:55;25.40;54.80
22456;DHT22;11395;53.204;6.502;2023-06-14T06:31:23;25.50;56.00
22456;DHT22;11395;53.204;6.502;2023-06-14T06:33:49;25.60;55.90
22456;DHT22;11395;53.204;6.502;2023-06-14T06:36:16;25.70;55.70
22456;DHT22;11395;53.204;6.502;2023-06-14T06:38:42;25.80;55.70
22456;DHT22;11395;53.204;6.502;2023-06-14T06:41:08;25.90;55.60
22456;DHT22;11395;53.204;6.502;2023-06-14T06:43:34;26.00;55.50
22456;DHT22;11395;53.204;6.502;2023-06-14T06:46:01;26.00;55.50
22456;DHT22;11395;53.204;6.502;2023-06-14T06:48:28;26.10;55.40
22456;DHT22;11395;53.204;6.502;2023-06-14T06:50:55;26.10;54.80
22456;DHT22;11395;53.204;6.502;2023-06-14T06:53:21;26.20;55.30
22456;DHT22;11395;53.204;6.502;2023-06-14T06:55:48;26.20;55.10
22456;DHT22;11395;53.204;6.502;2023-06-14T06:58:15;26.30;55.00
22456;DHT22;11395;53.204;6.502;2023-06-14T07:00:41;26.30;54.90
22456;DHT22;11395;53.204;6.502;2023-06-14T07:03:07;26.40;54.80
22456;DHT22;11395;53.204;6.502;2023-06-14T07:05:33;26.40;54.70
22456;DHT22;11395;53.204;6.502;2023-06-14T07:08:00;26.50;54.80
22456;DHT22;11395;53.204;6.502;2023-06-14T07:10:26;26.50;54.80
22456;DHT22;11395;53.204;6.502;2023-06-14T07:12:52;26.60;55.20
22456;DHT22;11395;53.204;6.502;2023-06-14T07:15:18;26.60;54.60
22456;DHT22;11395;53.204;6.502;2023-06-14T07:17:45;26.60;54.50
22456;DHT22;11395;53.204;6.502;2023-06-14T07:20:11;26.60;54.40
22456;DHT22;11395;53.204;6.502;2023-06-14T07:22:42;26.60;54.50
22456;DHT22;11395;53.204;6.502;2023-06-14T07:25:10;26.60;55.10
22456;DHT22;11395;53.204;6.502;2023-06-14T07:27:41;26.70;54.50
22456;DHT22;11395;53.204;6.502;2023-06-14T07:30:08;26.70;54.50
22456;DHT22;11395;53.204;6.502;2023-06-14T07:32:36;26.70;54.70
22456;DHT22;11395;53.204;6.502;2023-06-14T07:35:02;26.80;55.10
22456;DHT22;11395;53.204;6.502;2023-06-14T07:37:29;26.80;54.80
22456;DHT22;11395;53.204;6.502;2023-06-14T07:39:55;26.80;54.90
22456;DHT22;11395;53.204;6.502;2023-06-14T07:42:21;26.80;54.70
22456;DHT22;11395;53.204;6.502;2023-06-14T07:44:47;26.80;54.60
22456;DHT22;11395;53.204;6.502;2023-06-14T07:47:13;26.90;55.00
22456;DHT22;11395;53.204;6.502;2023-06-14T07:49:40;26.90;54.60
22456;DHT22;11395;53.204;6.502;2023-06-14T07:52:07;26.80;54.90
22456;DHT22;11395;53.204;6.502;2023-06-14T07:54:33;26.90;54.90
22456;DHT22;11395;53.204;6.502;2023-06-14T07:56:59;26.90;54.30
22456;DHT22;11395;53.204;6.502;2023-06-14T07:59:26;26.90;54.50
22456;DHT22;11395;53.204;6.502;2023-06-14T08:01:52;26.90;55.00
22456;DHT22;11395;53.204;6.502;2023-06-14T08:04:19;26.90;55.70
22456;DHT22;11395;53.204;6.502;2023-06-14T08:06:45;26.90;55.60
22456;DHT22;11395;53.204;6.502;2023-06-14T08:09:12;26.90;55.50
22456;DHT22;11395;53.204;6.502;2023-06-14T08:11:38;26.90;55.50
22456;DHT22;11395;53.204;6.502;2023-06-14T08:14:05;26.90;55.50
22456;DHT22;11395;53.204;6.502;2023-06-14T08:16:31;27.00;55.80
22456;DHT22;11395;53.204;6.502;2023-06-14T08:18:57;27.00;55.90
22456;DHT22;11395;53.204;6.502;2023-06-14T08:21:23;27.00;56.20
22456;DHT22;11395;53.204;6.502;2023-06-14T08:23:49;27.00;56.20
22456;DHT22;11395;53.204;6.502;2023-06-14T08:26:19;27.00;56.60
22456;DHT22;11395;53.204;6.502;2023-06-14T08:28:45;27.00;56.30
22456;DHT22;11395;53.204;6.502;2023-06-14T08:31:11;27.00;56.60
22456;DHT22;11395;53.204;6.502;2023-06-14T08:33:39;26.90;56.50
22456;DHT22;11395;53.204;6.502;2023-06-14T08:36:09;26.90;56.50
22456;DHT22;11395;53.204;6.502;2023-06-14T08:38:36;26.90;57.40
22456;DHT22;11395;53.204;6.502;2023-06-14T08:41:05;26.90;56.90
22456;DHT22;11395;53.204;6.502;2023-06-14T08:43:32;26.90;56.70
22456;DHT22;11395;53.204;6.502;2023-06-14T08:46:01;27.00;56.90
22456;DHT22;11395;53.204;6.502;2023-06-14T08:48:28;26.90;56.80
22456;DHT22;11395;53.204;6.502;2023-06-14T08:50:56;26.90;57.00
22456;DHT22;11395;53.204;6.502;2023-06-14T08:53:29;26.90;57.20
22456;DHT22;11395;53.204;6.502;2023-06-14T08:56:01;26.90;57.10
22456;DHT22;11395;53.204;6.502;2023-06-14T08:58:28;26.90;57.60
22456;DHT22;11395;53.204;6.502;2023-06-14T09:01:01;27.00;57.20
22456;DHT22;11395;53.204;6.502;2023-06-14T09:03:28;27.10;57.30
22456;DHT22;11395;53.204;6.502;2023-06-14T09:05:57;27.10;57.40
22456;DHT22;11395;53.204;6.502;2023-06-14T09:08:26;27.10;57.30
22456;DHT22;11395;53.204;6.502;2023-06-14T09:10:52;27.10;57.40
22456;DHT22;11395;53.204;6.502;2023-06-14T09:13:18;27.10;57.60
22456;DHT22;11395;53.204;6.502;2023-06-14T09:15:44;27.10;57.70
22456;DHT22;11395;53.204;6.502;2023-06-14T09:18:11;27.10;57.80
22456;DHT22;11395;53.204;6.502;2023-06-14T09:20:37;27.10;57.60
22456;DHT22;11395;53.204;6.502;2023-06-14T09:23:04;27.10;58.60
22456;DHT22;11395;53.204;6.502;2023-06-14T09:25:31;27.10;57.90
22456;DHT22;11395;53.204;6.502;2023-06-14T09:27:57;27.10;57.80
22456;DHT22;11395;53.204;6.502;2023-06-14T09:30:23;27.20;58.00
22456;DHT22;11395;53.204;6.502;2023-06-14T09:32:50;27.20;58.10
22456;DHT22;11395;53.204;6.502;2023-06-14T09:35:18;27.20;58.10
22456;DHT22;11395;53.204;6.502;2023-06-14T09:37:44;27.20;58.00
22456;DHT22;11395;53.204;6.502;2023-06-14T09:40:10;27.30;58.20
22456;DHT22;11395;53.204;6.502;2023-06-14T09:42:37;27.30;58.10
22456;DHT22;11395;53.204;6.502;2023-06-14T09:45:04;27.30;58.40
22456;DHT22;11395;53.204;6.502;2023-06-14T09:47:30;27.30;58.50
22456;DHT22;11395;53.204;6.502;2023-06-14T09:49:57;27.30;60.00
22456;DHT22;11395;53.204;6.502;2023-06-14T09:52:23;27.30;61.00
22456;DHT22;11395;53.204;6.502;2023-06-14T09:54:52;27.30;61.20
22456;DHT22;11395;53.204;6.502;2023-06-14T09:57:22;27.30;62.30
22456;DHT22;11395;53.204;6.502;2023-06-14T09:59:51;27.30;62.30
22456;DHT22;11395;53.204;6.502;2023-06-14T10:02:31;27.30;62.30
22456;DHT22;11395;53.204;6.502;2023-06-14T10:05:04;27.20;63.10
22456;DHT22;11395;53.204;6.502;2023-06-14T10:07:41;27.20;60.80
22456;DHT22;11395;53.204;6.502;2023-06-14T10:10:08;27.20;60.50
22456;DHT22;11395;53.204;6.502;2023-06-14T10:12:34;27.20;60.50
22456;DHT22;11395;53.204;6.502;2023-06-14T10:15:02;27.20;61.60
22456;DHT22;11395;53.204;6.502;2023-06-14T10:17:48;27.20;61.70
22456;DHT22;11395;53.204;6.502;2023-06-14T10:20:30;27.20;62.60
22456;DHT22;11395;53.204;6.502;2023-06-14T10:23:03;27.20;61.00
22456;DHT22;11395;53.204;6.502;2023-06-14T10:25:32;27.20;61.10
22456;DHT22;11395;53.204;6.502;2023-06-14T10:30:38;27.20;60.70
22456;DHT22;11395;53.204;6.502;2023-06-14T10:33:08;27.10;60.30
22456;DHT22;11395;53.204;6.502;2023-06-14T10:35:34;27.10;60.50
22456;DHT22;11395;53.204;6.502;2023-06-14T10:38:11;27.10;60.30
22456;DHT22;11395;53.204;6.502;2023-06-14T10:40:39;27.10;60.30
22456;DHT22;11395;53.204;6.502;2023-06-14T10:43:22;27.10;60.40
22456;DHT22;11395;53.204;6.502;2023-06-14T10:46:17;27.10;60.20
22456;DHT22;11395;53.204;6.502;2023-06-14T10:48:44;27.10;60.30
22456;DHT22;11395;53.204;6.502;2023-06-14T10:51:17;27.10;60.00
22456;DHT22;11395;53.204;6.502;2023-06-14T10:53:48;27.10;60.10
22456;DHT22;11395;53.204;6.502;2023-06-14T10:58:55;27.00;60.40
22456;DHT22;11395;53.204;6.502;2023-06-14T11:01:35;27.00;60.30
22456;DHT22;11395;53.204;6.502;2023-06-14T11:04:11;27.00;61.20
22456;DHT22;11395;53.204;6.502;2023-06-14T11:06:50;26.90;60.50
22456;DHT22;11395;53.204;6.502;2023-06-14T11:12:04;26.90;60.40
22456;DHT22;11395;53.204;6.502;2023-06-14T11:14:31;26.90;60.50
22456;DHT22;11395;53.204;6.502;2023-06-14T11:16:58;26.90;60.40
22456;DHT22;11395;53.204;6.502;2023-06-14T11:19:24;26.90;60.40
22456;DHT22;11395;53.204;6.502;2023-06-14T11:21:51;26.90;60.30
22456;DHT22;11395;53.204;6.502;2023-06-14T11:24:17;26.90;60.30
22456;DHT22;11395;53.204;6.502;2023-06-14T11:26:43;26.90;60.20
22456;DHT22;11395;53.204;6.502;2023-06-14T11:29:10;27.00;60.20
22456;DHT22;11395;53.204;6.502;2023-06-14T11:31:36;27.00;60.00
22456;DHT22;11395;53.204;6.502;2023-06-14T11:34:02;27.00;60.20
22456;DHT22;11395;53.204;6.502;2023-06-14T11:36:30;27.10;60.30
22456;DHT22;11395;53.204;6.502;2023-06-14T11:39:01;27.10;60.30
22456;DHT22;11395;53.204;6.502;2023-06-14T11:41:34;27.10;60.10
22456;DHT22;11395;53.204;6.502;2023-06-14T11:44:01;27.10;60.10
22456;DHT22;11395;53.204;6.502;2023-06-14T11:46:28;27.10;60.00
22456;DHT22;11395;53.204;6.502;2023-06-14T11:48:54;27.10;60.00
22456;DHT22;11395;53.204;6.502;2023-06-14T11:51:21;27.20;60.00
22456;DHT22;11395;53.204;6.502;2023-06-14T11:53:47;27.20;60.00
22456;DHT22;11395;53.204;6.502;2023-06-14T11:56:13;27.20;60.00
22456;DHT22;11395;53.204;6.502;2023-06-14T11:58:40;27.20;60.00
22456;DHT22;11395;53.204;6.502;2023-06-14T12:01:08;27.20;59.90
22456;DHT22;11395;53.204;6.502;2023-06-14T12:03:34;27.20;59.80
22456;DHT22;11395;53.204;6.502;2023-06-14T12:06:05;27.20;59.80
22456;DHT22;11395;53.204;6.502;2023-06-14T12:08:38;27.20;59.80
22456;DHT22;11395;53.204;6.502;2023-06-14T12:11:15;27.20;59.70
22456;DHT22;11395;53.204;6.502;2023-06-14T12:13:43;27.20;59.00
22456;DHT22;11395;53.204;6.502;2023-06-14T12:16:10;27.20;58.80
22456;DHT22;11395;53.204;6.502;2023-06-14T12:18:38;27.20;59.00
22456;DHT22;11395;53.204;6.502;2023-06-14T12:21:06;27.20;59.30
22456;DHT22;11395;53.204;6.502;2023-06-14T12:23:44;27.20;58.70
22456;DHT22;11395;53.204;6.502;2023-06-14T12:26:18;27.20;59.00
22456;DHT22;11395;53.204;6.502;2023-06-14T12:28:46;27.20;59.10
22456;DHT22;11395;53.204;6.502;2023-06-14T12:31:13;27.20;59.00
22456;DHT22;11395;53.204;6.502;2023-06-14T12:33:40;27.20;59.20
22456;DHT22;11395;53.204;6.502;2023-06-14T12:36:08;27.20;59.30
22456;DHT22;11395;53.204;6.502;2023-06-14T12:38:35;27.20;59.30
22456;DHT22;11395;53.204;6.502;2023-06-14T12:41:01;27.20;59.40
22456;DHT22;11395;53.204;6.502;2023-06-14T12:43:27;27.20;59.40
22456;DHT22;11395;53.204;6.502;2023-06-14T12:45:54;27.30;59.40
22456;DHT22;11395;53.204;6.502;2023-06-14T12:48:20;27.30;59.50
22456;DHT22;11395;53.204;6.502;2023-06-14T12:50:47;27.30;59.70
22456;DHT22;11395;53.204;6.502;2023-06-14T12:53:14;27.20;59.50
22456;DHT22;11395;53.204;6.502;2023-06-14T12:55:40;27.30;59.40
22456;DHT22;11395;53.204;6.502;2023-06-14T12:58:07;27.30;59.40
22456;DHT22;11395;53.204;6.502;2023-06-14T13:00:35;27.30;59.50
22456;DHT22;11395;53.204;6.502;2023-06-14T13:03:01;27.30;59.30
22456;DHT22;11395;53.204;6.502;2023-06-14T13:05:27;27.30;59.40
22456;DHT22;11395;53.204;6.502;2023-06-14T13:07:54;27.30;59.40
22456;DHT22;11395;53.204;6.502;2023-06-14T13:10:20;27.30;59.40
22456;DHT22;11395;53.204;6.502;2023-06-14T13:12:46;27.30;59.30
22456;DHT22;11395;53.204;6.502;2023-06-14T13:15:12;27.30;59.40
22456;DHT22;11395;53.204;6.502;2023-06-14T13:17:38;27.40;59.50
22456;DHT22;11395;53.204;6.502;2023-06-14T13:20:08;27.30;59.40
22456;DHT22;11395;53.204;6.502;2023-06-14T13:22:35;27.30;59.50
22456;DHT22;11395;53.204;6.502;2023-06-14T13:25:01;27.30;59.30
22456;DHT22;11395;53.204;6.502;2023-06-14T13:27:28;27.30;59.40
22456;DHT22;11395;53.204;6.502;2023-06-14T13:29:54;27.40;59.40
22456;DHT22;11395;53.204;6.502;2023-06-14T13:32:21;27.30;59.40
22456;DHT22;11395;53.204;6.502;2023-06-14T13:34:48;27.30;59.40
22456;DHT22;11395;53.204;6.502;2023-06-14T13:37:14;27.40;59.50
22456;DHT22;11395;53.204;6.502;2023-06-14T13:39:43;27.40;59.50
22456;DHT22;11395;53.204;6.502;2023-06-14T13:42:09;27.30;59.50
22456;DHT22;11395;53.204;6.502;2023-06-14T13:44:36;27.40;59.60
22456;DHT22;11395;53.204;6.502;2023-06-14T13:47:02;27.40;59.70
22456;DHT22;11395;53.204;6.502;2023-06-14T13:49:28;27.40;59.60
22456;DHT22;11395;53.204;6.502;2023-06-14T13:51:55;27.40;59.70
22456;DHT22;11395;53.204;6.502;2023-06-14T13:54:21;27.40;59.60
22456;DHT22;11395;53.204;6.502;2023-06-14T13:56:47;27.50;59.60
22456;DHT22;11395;53.204;6.502;2023-06-14T13:59:13;27.50;59.40
22456;DHT22;11395;53.204;6.502;2023-06-14T14:01:40;27.50;59.60
22456;DHT22;11395;53.204;6.502;2023-06-14T14:04:06;27.40;59.10
22456;DHT22;11395;53.204;6.502;2023-06-14T14:06:32;27.40;59.40
22456;DHT22;11395;53.204;6.502;2023-06-14T14:08:58;27.40;59.60
22456;DHT22;11395;53.204;6.502;2023-06-14T14:11:25;27.40;59.80
22456;DHT22;11395;53.204;6.502;2023-06-14T14:13:51;27.30;59.90
22456;DHT22;11395;53.204;6.502;2023-06-14T14:16:17;27.30;59.90
22456;DHT22;11395;53.204;6.502;2023-06-14T14:18:43;27.30;59.90
22456;DHT22;11395;53.204;6.502;2023-06-14T14:21:09;27.20;60.00
22456;DHT22;11395;53.204;6.502;2023-06-14T14:23:35;27.20;60.10
22456;DHT22;11395;53.204;6.502;2023-06-14T14:26:02;27.20;60.10
22456;DHT22;11395;53.204;6.502;2023-06-14T14:28:30;27.20;60.20
22456;DHT22;11395;53.204;6.502;2023-06-14T14:30:57;27.10;60.20
22456;DHT22;11395;53.204;6.502;2023-06-14T14:33:23;27.10;60.10
22456;DHT22;11395;53.204;6.502;2023-06-14T14:35:49;27.10;60.10
22456;DHT22;11395;53.204;6.502;2023-06-14T14:38:15;27.10;60.00
22456;DHT22;11395;53.204;6.502;2023-06-14T14:40:43;27.10;60.10
22456;DHT22;11395;53.204;6.502;2023-06-14T14:43:10;27.20;60.20
22456;DHT22;11395;53.204;6.502;2023-06-14T14:45:36;27.20;60.00
22456;DHT22;11395;53.204;6.502;2023-06-14T14:48:03;27.20;60.80
22456;DHT22;11395;53.204;6.502;2023-06-14T14:50:29;27.20;60.00
22456;DHT22;11395;53.204;6.502;2023-06-14T14:52:55;27.20;60.00
22456;DHT22;11395;53.204;6.502;2023-06-14T14:55:22;27.20;60.00
22456;DHT22;11395;53.204;6.502;2023-06-14T14:57:48;27.10;60.10
22456;DHT22;11395;53.204;6.502;2023-06-14T15:00:14;27.10;60.00
22456;DHT22;11395;53.204;6.502;2023-06-14T15:02:40;27.10;60.20
22456;DHT22;11395;53.204;6.502;2023-06-14T15:05:07;27.10;60.10
22456;DHT22;11395;53.204;6.502;2023-06-14T15:07:33;27.10;60.00
22456;DHT22;11395;53.204;6.502;2023-06-14T15:10:00;27.10;60.20
22456;DHT22;11395;53.204;6.502;2023-06-14T15:12:26;27.10;60.20
22456;DHT22;11395;53.204;6.502;2023-06-14T15:14:53;27.10;60.30
22456;DHT22;11395;53.204;6.502;2023-06-14T15:17:20;27.10;60.20
22456;DHT22;11395;53.204;6.502;2023-06-14T15:19:46;27.20;60.10
22456;DHT22;11395;53.204;6.502;2023-06-14T15:22:13;27.20;60.20
22456;DHT22;11395;53.204;6.502;2023-06-14T15:24:43;27.20;60.20
22456;DHT22;11395;53.204;6.502;2023-06-14T15:27:11;27.20;60.00
22456;DHT22;11395;53.204;6.502;2023-06-14T15:29:39;27.20;60.00
22456;DHT22;11395;53.204;6.502;2023-06-14T15:32:06;27.20;60.00
22456;DHT22;11395;53.204;6.502;2023-06-14T15:34:33;27.30;59.90
22456;DHT22;11395;53.204;6.502;2023-06-14T15:36:59;27.30;59.80
22456;DHT22;11395;53.204;6.502;2023-06-14T15:39:26;27.30;59.90
22456;DHT22;11395;53.204;6.502;2023-06-14T15:41:53;27.30;59.90
22456;DHT22;11395;53.204;6.502;2023-06-14T15:44:19;27.20;60.00